Time;durP1;ratioP1;P1;durP2;ratioP2;P2;SDS_P1;SDS_P2;PMS_P1;PMS_P2;Temp;Humidity;BMP_temperature;BMP_pressure;BME280_temperature;BME280_humidity;BME280_pressure;Samples;Min_cycle;Max_cycle;Signal;HPM_P1;HPM_P2
2022/03/21 00:00:25;;;;;;;;;;;;;;;15.93;42.31;102999.00;6341132;22;19981;-81
2022/03/21 00:02:51;;;;;;;;;;;;;;;15.91;42.49;103001.56;6313812;22;19914;-81
2022/03/21 00:05:17;;;;;;;;;;;;;;;15.91;42.31;103000.69;6287651;22;19932;-81
2022/03/21 00:07:42;;;;;;;;;;;;;;;15.90;42.29;103006.72;6341086;22;19942;-81
2022/03/21 00:10:07;;;;;;;;;;;;;;;15.91;42.44;103011.06;6341582;22;20342;-82
2022/03/21 00:12:34;;;;;;;;;;;;;;;15.91;42.25;103011.06;6318257;22;19940;-81
2022/03/21 00:14:59;;;;;;;;;;;;;;;15.91;42.41;103013.66;6321867;22;19950;-81
2022/03/21 00:17:25;;;;;;;;;;;;;;;15.90;42.42;103017.97;6295585;22;19918;-81
2022/03/21 00:19:50;;;;;;;;;;;;;;;15.90;42.36;103024.91;6290612;22;19911;-81
2022/03/21 00:22:15;;;;;;;;;;;;;;;15.89;42.47;103024.00;6342920;22;20341;-81
2022/03/21 00:24:41;;;;;;;;;;;;;;;15.89;42.46;103020.50;6342061;22;19910;-82
2022/03/21 00:27:12;;;;;;;;;;;;;;;15.89;42.33;103021.38;6314169;22;19915;-81
2022/03/21 00:29:38;;;;;;;;;;;;;;;15.89;42.46;103023.13;6313541;22;19955;-80
2022/03/21 00:32:05;;;;;;;;;;;;;;;15.88;42.48;103030.03;6313904;22;20270;-82
2022/03/21 00:34:31;;;;;;;;;;;;;;;15.88;42.29;103026.56;6341872;22;19917;-82
2022/03/21 00:36:57;;;;;;;;;;;;;;;15.88;42.41;103021.38;6319020;22;19906;-82
2022/03/21 00:39:22;;;;;;;;;;;;;;;15.87;42.27;103019.59;6321231;22;20239;-81
2022/03/21 00:41:48;;;;;;;;;;;;;;;15.87;42.31;103020.47;6316778;22;19911;-82
2022/03/21 00:44:13;;;;;;;;;;;;;;;15.86;42.48;103028.22;6343431;22;19915;-81
2022/03/21 00:46:38;;;;;;;;;;;;;;;15.86;42.59;103026.50;6314400;22;19937;-81
2022/03/21 00:49:08;;;;;;;;;;;;;;;15.85;42.42;103032.50;6289282;22;19946;-81
2022/03/21 00:51:33;;;;;;;;;;;;;;;15.86;42.48;103030.81;6315140;22;19914;-81
2022/03/21 00:53:58;;;;;;;;;;;;;;;15.87;42.36;103027.38;6315123;22;19930;-81
2022/03/21 00:56:23;;;;;;;;;;;;;;;15.86;42.43;103034.28;6288628;22;20247;-81
2022/03/21 00:58:49;;;;;;;;;;;;;;;15.84;42.54;103026.44;6314314;22;19914;-81
2022/03/21 01:01:14;;;;;;;;;;;;;;;15.84;42.36;103033.34;6342180;22;19903;-81
2022/03/21 01:03:39;;;;;;;;;;;;;;;15.83;42.41;103029.00;6288880;22;19915;-81
2022/03/21 01:06:05;;;;;;;;;;;;;;;15.82;42.28;103027.22;6343592;22;19913;-81
2022/03/21 01:08:30;;;;;;;;;;;;;;;15.84;42.50;103033.34;6343305;22;20242;-81
2022/03/21 01:10:56;;;;;;;;;;;;;;;15.82;42.50;103038.47;6343282;22;19938;-81
2022/03/21 01:13:21;;;;;;;;;;;;;;;15.82;42.53;103033.28;6315071;22;19911;-81
2022/03/21 01:15:47;;;;;;;;;;;;;;;15.82;42.51;103035.88;6314641;22;19918;-80
2022/03/21 01:18:12;;;;;;;;;;;;;;;15.82;42.31;103035.00;6342161;22;19981;-80
2022/03/21 01:20:37;;;;;;;;;;;;;;;15.81;42.30;103035.88;6342729;22;19914;-81
2022/03/21 01:23:03;;;;;;;;;;;;;;;15.81;42.32;103033.25;6342438;22;20220;-82
2022/03/21 01:25:28;;;;;;;;;;;;;;;15.81;42.29;103034.13;6342652;22;19910;-81
2022/03/21 01:27:53;;;;;;;;;;;;;;;15.81;42.49;103030.66;6314972;22;19941;-81
2022/03/21 01:30:19;;;;;;;;;;;;;;;15.81;42.44;103036.72;6314569;22;19960;-81
2022/03/21 01:32:45;;;;;;;;;;;;;;;15.81;42.50;103035.88;6314777;22;19906;-81
2022/03/21 01:35:16;;;;;;;;;;;;;;;15.81;42.35;103038.47;6342081;22;19906;-81
2022/03/21 01:37:42;;;;;;;;;;;;;;;15.81;42.31;103038.47;6315221;22;19906;-81
2022/03/21 01:40:08;;;;;;;;;;;;;;;15.80;42.23;103036.69;6342373;22;20031;-81
2022/03/21 01:42:33;;;;;;;;;;;;;;;15.79;42.28;103040.13;6342254;22;19911;-81
2022/03/21 01:44:58;;;;;;;;;;;;;;;15.79;42.31;103035.81;6315170;22;19979;-81
2022/03/21 01:47:24;;;;;;;;;;;;;;;15.78;42.33;103038.34;6315438;22;19906;-81
2022/03/21 01:49:50;;;;;;;;;;;;;;;15.78;42.47;103036.63;6342523;22;19929;-80
2022/03/21 01:52:15;;;;;;;;;;;;;;;15.77;42.70;103037.47;6315415;22;19910;-81
2022/03/21 01:57:25;;;;;;;;;;;;;;;15.77;42.46;103040.06;6342562;22;19914;-80
2022/03/21 01:59:51;;;;;;;;;;;;;;;15.76;42.39;103035.69;6342568;22;19910;-80
2022/03/21 02:02:16;;;;;;;;;;;;;;;15.75;42.55;103036.53;6315137;22;19994;-81
2022/03/21 02:04:42;;;;;;;;;;;;;;;15.76;42.57;103040.00;6342628;22;19914;-81
2022/03/21 02:07:07;;;;;;;;;;;;;;;15.76;42.33;103046.06;6343334;22;19956;-81
2022/03/21 02:09:33;;;;;;;;;;;;;;;15.75;42.43;103041.72;6342933;22;19907;-81
2022/03/21 02:11:58;;;;;;;;;;;;;;;15.76;42.45;103037.41;6343092;22;19978;-81
2022/03/21 02:14:25;;;;;;;;;;;;;;;15.77;42.40;103040.06;6343117;22;19918;-81
2022/03/21 02:16:50;;;;;;;;;;;;;;;15.77;42.32;103041.78;6344201;22;20353;-81
2022/03/21 02:19:15;;;;;;;;;;;;;;;15.76;42.42;103042.59;6348738;22;19906;-81
2022/03/21 02:21:48;;;;;;;;;;;;;;;15.74;42.23;103047.75;6321329;22;19907;-81
2022/03/21 02:24:33;;;;;;;;;;;;;;;15.75;42.26;103049.50;6346961;22;19913;-81
2022/03/21 02:27:00;;;;;;;;;;;;;;;15.74;42.47;103052.94;6319889;22;19906;-82
2022/03/21 02:29:26;;;;;;;;;;;;;;;15.73;42.35;103050.28;6319808;22;19945;-81
2022/03/21 02:31:53;;;;;;;;;;;;;;;15.73;42.34;103053.75;6321024;22;19928;-81
2022/03/21 02:34:20;;;;;;;;;;;;;;;15.72;42.46;103049.41;6347384;22;19960;-81
2022/03/21 02:36:46;;;;;;;;;;;;;;;15.73;42.33;103056.34;6347152;22;20207;-81
2022/03/21 02:39:12;;;;;;;;;;;;;;;15.74;42.32;103059.84;6344006;22;20027;-81
2022/03/21 02:41:37;;;;;;;;;;;;;;;15.72;42.30;103046.81;6342226;22;20239;-80
2022/03/21 02:44:02;;;;;;;;;;;;;;;15.72;42.28;103052.00;6314443;22;19911;-81
2022/03/21 02:46:27;;;;;;;;;;;;;;;15.72;42.37;103053.69;6314746;22;20319;-81
2022/03/21 02:48:54;;;;;;;;;;;;;;;15.70;42.35;103056.25;6341585;22;19910;-79
2022/03/21 02:51:22;;;;;;;;;;;;;;;15.71;42.27;103055.44;6314366;22;19915;-81
2022/03/21 02:53:51;;;;;;;;;;;;;;;15.71;42.26;103052.81;6313987;22;20243;-81
2022/03/21 02:56:17;;;;;;;;;;;;;;;15.71;42.28;103049.31;6314044;22;20319;-81
2022/03/21 02:58:42;;;;;;;;;;;;;;;15.71;42.30;103054.50;6341417;22;19913;-81
2022/03/21 03:01:13;;;;;;;;;;;;;;;15.70;42.26;103056.25;6314028;22;19911;-80
2022/03/21 03:03:38;;;;;;;;;;;;;;;15.70;42.22;103057.91;6313745;22;19918;-81
2022/03/21 03:06:04;;;;;;;;;;;;;;;15.70;42.33;103056.25;6314470;22;19911;-81
2022/03/21 03:08:30;;;;;;;;;;;;;;;15.70;42.27;103060.53;6313782;22;19945;-81
2022/03/21 03:10:55;;;;;;;;;;;;;;;15.69;42.16;103062.25;6313803;22;20315;-81
2022/03/21 03:13:20;;;;;;;;;;;;;;;15.70;42.22;103057.91;6341409;22;19907;-80
2022/03/21 03:15:47;;;;;;;;;;;;;;;15.68;42.42;103057.91;6313644;22;20308;-81
2022/03/21 03:18:12;;;;;;;;;;;;;;;15.67;42.47;103060.44;6313443;22;19925;-81
2022/03/21 03:20:38;;;;;;;;;;;;;;;15.68;42.28;103057.91;6341254;22;19946;-81
2022/03/21 03:23:05;;;;;;;;;;;;;;;15.67;42.56;103056.13;6313809;22;19911;-81
2022/03/21 03:25:30;;;;;;;;;;;;;;;15.66;42.34;103062.16;6345663;22;19989;-81
2022/03/21 03:27:57;;;;;;;;;;;;;;;15.66;42.29;103062.16;6347763;22;19975;-81
2022/03/21 03:30:22;;;;;;;;;;;;;;;15.65;42.45;103062.97;6294822;22;19910;-79
2022/03/21 03:32:50;;;;;;;;;;;;;;;15.65;42.17;103068.16;6315991;22;20320;-81
2022/03/21 03:35:16;;;;;;;;;;;;;;;15.64;42.30;103058.63;6342941;22;20319;-80
2022/03/21 03:37:41;;;;;;;;;;;;;;;15.64;42.27;103066.41;6341775;22;19911;-81
2022/03/21 03:40:06;;;;;;;;;;;;;;;15.62;42.18;103068.94;6341496;22;19911;-81
2022/03/21 03:42:32;;;;;;;;;;;;;;;15.63;42.28;103068.13;6313481;22;20323;-81
2022/03/21 03:44:57;;;;;;;;;;;;;;;15.64;42.27;103063.81;6313223;22;19964;-81
2022/03/21 03:47:23;;;;;;;;;;;;;;;15.63;42.41;103059.44;6313700;22;19910;-80
2022/03/21 03:49:48;;;;;;;;;;;;;;;15.62;42.26;103061.16;6341280;22;19907;-81
2022/03/21 03:52:13;;;;;;;;;;;;;;;15.62;42.25;103068.06;6313709;22;19910;-81
2022/03/21 03:54:38;;;;;;;;;;;;;;;15.61;42.25;103066.28;6314817;22;19960;-81
2022/03/21 03:57:04;;;;;;;;;;;;;;;15.62;42.28;103065.47;6317815;22;19911;-82
2022/03/21 03:59:29;;;;;;;;;;;;;;;15.61;42.11;103068.88;6317771;22;19910;-81
2022/03/21 04:01:54;;;;;;;;;;;;;;;15.60;42.33;103067.13;6345558;22;20329;-81
2022/03/21 04:04:19;;;;;;;;;;;;;;;15.60;42.29;103069.72;6318034;22;19918;-78
2022/03/21 04:06:45;;;;;;;;;;;;;;;15.61;42.28;103071.47;6317254;22;19911;-78
2022/03/21 04:09:10;;;;;;;;;;;;;;;15.61;42.22;103076.66;6344382;22;19917;-78
2022/03/21 04:11:35;;;;;;;;;;;;;;;15.60;42.17;103078.38;6346135;22;20292;-78
2022/03/21 04:14:00;;;;;;;;;;;;;;;15.60;42.21;103080.09;6316526;22;19911;-79
2022/03/21 04:16:26;;;;;;;;;;;;;;;15.59;42.27;103081.81;6289305;22;19914;-77
2022/03/21 04:18:51;;;;;;;;;;;;;;;15.58;42.30;103086.94;6289400;22;19985;-78
2022/03/21 04:21:16;;;;;;;;;;;;;;;15.58;42.28;103081.75;6315309;22;19917;-78
2022/03/21 04:23:41;;;;;;;;;;;;;;;15.57;42.29;103090.34;6314365;22;19949;-77
2022/03/21 04:26:07;;;;;;;;;;;;;;;15.57;42.24;103085.16;6313478;22;19910;-77
2022/03/21 04:28:32;;;;;;;;;;;;;;;15.57;42.53;103079.97;6341095;22;19910;-77
2022/03/21 04:30:57;;;;;;;;;;;;;;;15.55;42.22;103085.13;6286861;22;19953;-78
2022/03/21 04:33:22;;;;;;;;;;;;;;;15.56;42.29;103084.28;6286848;22;19917;-78
2022/03/21 04:35:48;;;;;;;;;;;;;;;15.56;42.28;103086.88;6313306;22;19994;-77
2022/03/21 04:38:14;;;;;;;;;;;;;;;15.56;42.25;103091.22;6313244;22;19911;-80
2022/03/21 04:40:44;;;;;;;;;;;;;;;15.56;42.39;103089.47;6315703;22;19915;-80
2022/03/21 04:43:10;;;;;;;;;;;;;;;15.56;42.38;103099.00;6342524;22;19911;-80
2022/03/21 04:45:35;;;;;;;;;;;;;;;15.56;42.22;103091.22;6342575;22;19930;-81
2022/03/21 04:48:01;;;;;;;;;;;;;;;15.54;42.31;103098.06;6342606;22;19997;-81
2022/03/21 04:50:27;;;;;;;;;;;;;;;15.53;42.34;103099.78;6342413;22;19907;-80
2022/03/21 04:52:52;;;;;;;;;;;;;;;15.54;42.29;103101.53;6342471;22;20242;-81
2022/03/21 04:55:17;;;;;;;;;;;;;;;15.54;42.17;103108.44;6315360;22;19942;-80
2022/03/21 04:57:42;;;;;;;;;;;;;;;15.54;42.30;103111.91;6289181;22;19952;-81
2022/03/21 05:00:08;;;;;;;;;;;;;;;15.55;42.17;103107.63;6315127;22;19911;-80
2022/03/21 05:02:33;;;;;;;;;;;;;;;15.53;42.43;103112.75;6342560;22;19922;-81
2022/03/21 05:04:58;;;;;;;;;;;;;;;15.52;42.22;103110.09;6314874;22;19915;-82
2022/03/21 05:07:25;;;;;;;;;;;;;;;15.52;42.32;103104.91;6315296;22;19910;-80
2022/03/21 05:09:50;;;;;;;;;;;;;;;15.51;42.29;103109.22;6315226;22;19917;-80
2022/03/21 05:12:16;;;;;;;;;;;;;;;15.51;42.23;103104.03;6343276;22;19907;-81
2022/03/21 05:14:41;;;;;;;;;;;;;;;15.50;42.21;103104.84;6316076;22;19907;-81
2022/03/21 05:17:09;;;;;;;;;;;;;;;15.48;42.41;103106.50;6316009;22;20250;-82
2022/03/21 05:19:37;;;;;;;;;;;;;;;15.49;42.20;103104.81;6342616;22;20395;-81
2022/03/21 05:22:06;;;;;;;;;;;;;;;15.50;42.23;103109.16;6314543;22;19910;-81
2022/03/21 05:32:43;;;;;;;;;;;;;;;15.49;42.32;103113.47;6343058;22;19917;-80
2022/03/21 05:37:52;;;;;;;;;;;;;;;15.48;41.96;103118.59;6342318;22;19918;-81
2022/03/21 05:40:34;;;;;;;;;;;;;;;15.47;42.17;103120.31;6342723;22;19911;-81
2022/03/21 05:42:59;;;;;;;;;;;;;;;15.48;42.26;103119.47;6342865;22;20084;-81
2022/03/21 05:45:25;;;;;;;;;;;;;;;15.50;42.32;103130.78;6343110;22;19911;-82
2022/03/21 05:50:39;;;;;;;;;;;;;;;15.51;41.97;103131.69;6286478;22;20382;-80
2022/03/21 05:53:05;;;;;;;;;;;;;;;15.51;42.16;103134.28;6315549;22;19917;-81
2022/03/21 05:55:31;;;;;;;;;;;;;;;15.50;42.24;103135.97;6314468;22;20216;-77
2022/03/21 05:57:57;;;;;;;;;;;;;;;15.50;42.27;103140.28;6314334;22;19945;-77
2022/03/21 06:00:22;;;;;;;;;;;;;;;15.51;42.33;103136.88;6341350;22;19930;-78
2022/03/21 06:02:51;;;;;;;;;;;;;;;15.52;42.02;103143.81;6341762;22;19946;-78
2022/03/21 06:05:16;;;;;;;;;;;;;;;15.52;41.99;103141.22;6313715;22;19907;-77
2022/03/21 06:07:41;;;;;;;;;;;;;;;15.53;42.07;103143.00;6313671;22;20314;-77
2022/03/21 06:10:13;;;;;;;;;;;;;;;15.54;42.01;103142.16;6289211;22;19911;-78
2022/03/21 06:12:39;;;;;;;;;;;;;;;15.55;41.82;103146.56;6313791;22;19910;-77
2022/03/21 06:15:04;;;;;;;;;;;;;;;15.53;41.99;103146.50;6341463;22;19914;-77
2022/03/21 06:17:29;;;;;;;;;;;;;;;15.55;42.03;103147.44;6288344;22;19922;-78
2022/03/21 06:19:55;;;;;;;;;;;;;;;15.57;42.16;103150.97;6313834;22;20299;-78
2022/03/21 06:22:20;;;;;;;;;;;;;;;15.59;41.97;103157.09;6287767;22;20433;-77
2022/03/21 06:24:45;;;;;;;;;;;;;;;15.60;41.92;103152.78;6313475;22;19929;-77
2022/03/21 06:27:10;;;;;;;;;;;;;;;15.61;42.17;103158.03;6314156;22;19930;-77
2022/03/21 06:29:39;;;;;;;;;;;;;;;15.64;42.00;103159.84;6341043;22;19910;-77
2022/03/21 06:32:04;;;;;;;;;;;;;;;15.68;41.91;103164.31;6288636;22;19938;-77
2022/03/21 06:34:29;;;;;;;;;;;;;;;15.71;42.03;103172.22;6313795;22;19918;-77
2022/03/21 06:36:55;;;;;;;;;;;;;;;15.72;41.85;103165.31;6342769;22;19937;-83
2022/03/21 06:39:20;;;;;;;;;;;;;;;15.74;42.02;103171.47;6318406;22;20243;-79
2022/03/21 06:41:46;;;;;;;;;;;;;;;15.76;42.04;103178.47;6292950;22;19941;-77
2022/03/21 06:44:12;;;;;;;;;;;;;;;15.77;41.87;103177.66;6316513;22;19917;-77
2022/03/21 06:46:37;;;;;;;;;;;;;;;15.79;41.88;103180.31;6341746;22;19911;-77
2022/03/21 06:49:02;;;;;;;;;;;;;;;15.80;41.89;103176.88;6314396;22;19989;-77
2022/03/21 06:51:28;;;;;;;;;;;;;;;15.83;41.90;103183.06;6341417;22;19956;-76
2022/03/21 06:53:53;;;;;;;;;;;;;;;15.90;41.88;103181.56;6313656;22;19911;-77
2022/03/21 06:56:18;;;;;;;;;;;;;;;16.03;41.82;103185.47;6288054;22;20288;-78
2022/03/21 06:58:44;;;;;;;;;;;;;;;16.24;41.21;103185.28;6287955;22;19993;-77
2022/03/21 07:01:09;;;;;;;;;;;;;;;16.58;40.56;103186.41;6287507;22;20350;-77
2022/03/21 07:03:34;;;;;;;;;;;;;;;16.99;39.66;103195.53;6342261;22;19954;-76
2022/03/21 07:05:59;;;;;;;;;;;;;;;17.30;39.39;103188.63;6314796;22;19910;-77
2022/03/21 07:08:25;;;;;;;;;;;;;;;17.52;38.92;103179.72;6314050;22;19906;-75
2022/03/21 07:10:50;;;;;;;;;;;;;;;17.65;38.61;103188.75;6313440;22;19911;-75
2022/03/21 07:13:15;;;;;;;;;;;;;;;17.66;38.66;103182.72;6287296;22;20331;-78
2022/03/21 07:15:41;;;;;;;;;;;;;;;17.79;38.27;103192.63;6287025;22;20355;-78
2022/03/21 07:18:06;;;;;;;;;;;;;;;17.97;38.17;103192.25;6312667;22;19938;-78
2022/03/21 07:20:31;;;;;;;;;;;;;;;18.01;37.93;103186.28;6340675;22;19907;-77
2022/03/21 07:22:57;;;;;;;;;;;;;;;18.14;37.74;103192.72;6312707;22;19915;-77
2022/03/21 07:25:23;;;;;;;;;;;;;;;18.15;37.87;103196.19;6312465;22;19913;-80
2022/03/21 07:27:48;;;;;;;;;;;;;;;18.07;38.18;103202.09;6287038;22;19935;-79
2022/03/21 07:30:14;;;;;;;;;;;;;;;18.05;37.96;103198.56;6312820;22;20234;-80
2022/03/21 07:32:40;;;;;;;;;;;;;;;18.07;38.19;103201.19;6312612;22;19910;-80
2022/03/21 07:35:06;;;;;;;;;;;;;;;18.10;38.09;103193.47;6340306;22;19907;-80
2022/03/21 07:37:46;;;;;;;;;;;;;;;18.15;38.08;103198.78;6340219;22;19918;-79
2022/03/21 07:40:12;;;;;;;;;;;;;;;18.20;37.76;103194.56;6312624;22;20250;-79
2022/03/21 07:42:41;;;;;;;;;;;;;;;18.22;38.04;103201.59;6340293;22;19915;-79
2022/03/21 07:47:51;;;;;;;;;;;;;;;18.24;37.96;103204.22;6340224;22;19913;-79
2022/03/21 07:50:17;;;;;;;;;;;;;;;17.92;38.37;103203.38;6340154;22;19977;-79
2022/03/21 07:52:42;;;;;;;;;;;;;;;17.42;39.50;103203.72;6286651;22;19911;-79
2022/03/21 07:55:08;;;;;;;;;;;;;;;17.16;40.31;103205.56;6312607;22;20212;-79
2022/03/21 07:57:33;;;;;;;;;;;;;;;17.08;40.62;103215.75;6340388;22;19987;-79
2022/03/21 07:59:58;;;;;;;;;;;;;;;17.09;40.55;103211.41;6286691;22;19914;-79
2022/03/21 08:02:25;;;;;;;;;;;;;;;17.50;39.56;103210.03;6312528;22;19960;-78
2022/03/21 08:04:51;;;;;;;;;;;;;;;17.81;39.10;103210.88;6287140;22;19933;-78
2022/03/21 08:07:16;;;;;;;;;;;;;;;17.92;38.66;103211.22;6340137;22;20271;-79
2022/03/21 08:09:42;;;;;;;;;;;;;;;18.06;38.51;103212.47;6312438;22;19907;-78
2022/03/21 08:12:08;;;;;;;;;;;;;;;18.12;38.53;103214.34;6312199;22;19989;-78
2022/03/21 08:14:33;;;;;;;;;;;;;;;18.11;38.50;103216.06;6312144;22;19911;-80
2022/03/21 08:16:59;;;;;;;;;;;;;;;18.06;38.63;103218.56;6340030;22;19946;-81
2022/03/21 08:19:25;;;;;;;;;;;;;;;18.03;38.81;103217.56;6286642;22;19911;-82
2022/03/21 08:21:53;;;;;;;;;;;;;;;18.00;38.98;103217.50;6286566;22;19917;-80
2022/03/21 08:24:22;;;;;;;;;;;;;;;17.95;38.96;103219.13;6286451;22;19986;-81
2022/03/21 08:26:48;;;;;;;;;;;;;;;17.94;39.09;103217.34;6313238;22;19983;-79
2022/03/21 08:29:13;;;;;;;;;;;;;;;17.94;39.05;103218.22;6340402;22;20330;-80
2022/03/21 08:31:38;;;;;;;;;;;;;;;17.98;39.16;103222.66;6286794;22;19938;-80
2022/03/21 08:34:04;;;;;;;;;;;;;;;17.88;39.25;103223.28;6286795;22;19910;-81
2022/03/21 08:36:30;;;;;;;;;;;;;;;17.87;39.46;103218.91;6312308;22;20315;-81
2022/03/21 08:38:55;;;;;;;;;;;;;;;17.83;39.45;103217.97;6312649;22;19929;-81
2022/03/21 08:41:21;;;;;;;;;;;;;;;17.82;39.71;103224.00;6312802;22;20303;-80
2022/03/21 08:43:47;;;;;;;;;;;;;;;17.84;39.51;103216.22;6312158;22;20239;-80
2022/03/21 08:46:12;;;;;;;;;;;;;;;17.76;39.63;103215.97;6286520;22;19994;-80
2022/03/21 08:51:21;;;;;;;;;;;;;;;17.67;40.05;103224.41;6316502;22;19917;-81
2022/03/21 08:53:46;;;;;;;;;;;;;;;17.68;39.99;103225.28;6286433;22;20301;-78
2022/03/21 08:56:11;;;;;;;;;;;;;;;17.65;40.18;103227.81;6312004;22;19910;-79
2022/03/21 08:58:37;;;;;;;;;;;;;;;17.65;40.42;103227.81;6286148;22;19971;-77
2022/03/21 09:01:02;;;;;;;;;;;;;;;17.75;40.15;103222.03;6339763;22;19995;-79
2022/03/21 09:03:27;;;;;;;;;;;;;;;17.71;40.29;103220.19;6340102;22;19915;-80
2022/03/21 09:05:52;;;;;;;;;;;;;;;17.73;40.39;103217.63;6286945;22;20003;-80
2022/03/21 09:08:18;;;;;;;;;;;;;;;17.74;40.29;103214.16;6286562;22;19956;-80
2022/03/21 09:10:43;;;;;;;;;;;;;;;17.69;40.63;103227.94;6286352;22;19911;-79
2022/03/21 09:13:08;;;;;;;;;;;;;;;17.59;40.69;103222.44;6312140;22;20235;-80
2022/03/21 09:15:34;;;;;;;;;;;;;;;17.56;40.67;103230.16;6287280;22;19911;-80
2022/03/21 09:18:00;;;;;;;;;;;;;;;17.55;40.67;103225.78;6286597;22;20336;-79
2022/03/21 09:20:25;;;;;;;;;;;;;;;17.66;40.85;103222.66;6286685;22;20329;-77
2022/03/21 09:22:50;;;;;;;;;;;;;;;17.67;40.78;103226.13;6312011;22;19960;-77
2022/03/21 09:25:17;;;;;;;;;;;;;;;17.66;41.20;103227.88;6340957;22;19907;-78
2022/03/21 09:27:42;;;;;;;;;;;;;;;17.61;41.09;103226.84;6313994;22;19941;-76
2022/03/21 09:30:09;;;;;;;;;;;;;;;17.60;41.53;103221.59;6313784;22;19911;-76
2022/03/21 09:32:34;;;;;;;;;;;;;;;17.56;41.85;103220.63;6288747;22;19918;-76
2022/03/21 09:34:59;;;;;;;;;;;;;;;17.46;42.16;103224.69;6313924;22;19954;-76
2022/03/21 09:37:25;;;;;;;;;;;;;;;17.43;42.43;103224.59;6287847;22;19910;-76
2022/03/21 09:39:50;;;;;;;;;;;;;;;17.43;42.72;103226.31;6313748;22;20323;-76
2022/03/21 09:42:15;;;;;;;;;;;;;;;17.43;42.88;103223.72;6341175;22;20292;-76
2022/03/21 09:44:40;;;;;;;;;;;;;;;17.43;43.17;103219.38;6313967;22;19910;-76
2022/03/21 09:48:08;;;;;;;;;;;;;;;17.45;43.40;103220.31;6341601;22;19977;-76
2022/03/21 09:49:52;;;;;;;;;;;;;;;17.45;43.45;103211.63;6341498;22;19910;-76
2022/03/21 09:52:19;;;;;;;;;;;;;;;17.43;44.14;103221.13;6341856;22;19956;-76
2022/03/21 09:54:44;;;;;;;;;;;;;;;17.38;44.17;103220.09;6342811;22;19964;-76
2022/03/21 09:57:09;;;;;;;;;;;;;;;17.35;44.54;103222.59;6290131;22;19911;-77
2022/03/21 09:59:34;;;;;;;;;;;;;;;17.36;44.79;103214.84;6350899;22;19911;-76
2022/03/21 10:02:01;;;;;;;;;;;;;;;17.37;44.69;103215.72;6329845;22;19915;-76
2022/03/21 10:04:26;;;;;;;;;;;;;;;17.38;45.13;103220.09;6320886;22;19938;-76
2022/03/21 10:06:58;;;;;;;;;;;;;;;17.40;45.44;103218.44;6291315;22;20235;-76
2022/03/21 10:09:23;;;;;;;;;;;;;;;17.39;45.29;103217.53;6344667;22;19907;-76
2022/03/21 10:11:51;;;;;;;;;;;;;;;17.36;45.57;103219.19;6291017;22;19911;-76
2022/03/21 10:14:29;;;;;;;;;;;;;;;17.31;45.48;103216.44;6317912;22;19906;-76
2022/03/21 10:17:03;;;;;;;;;;;;;;;17.29;45.61;103218.13;6318770;22;20326;-76
2022/03/21 10:19:40;;;;;;;;;;;;;;;17.25;45.80;103211.94;6342926;22;19906;-76
2022/03/21 10:22:06;;;;;;;;;;;;;;;17.22;45.97;103209.25;6313675;22;20216;-77
2022/03/21 10:24:40;;;;;;;;;;;;;;;17.22;46.04;103205.75;6314378;22;19906;-77
2022/03/21 10:27:06;;;;;;;;;;;;;;;17.17;46.12;103210.81;6341775;22;19906;-76
2022/03/21 10:29:34;;;;;;;;;;;;;;;17.15;46.25;103206.41;6313934;22;20354;-77
2022/03/21 10:31:59;;;;;;;;;;;;;;;17.14;46.40;103215.06;6313375;22;19913;-77
2022/03/21 10:34:33;;;;;;;;;;;;;;;17.11;46.54;103221.03;6313703;22;19985;-76
2022/03/21 10:37:03;;;;;;;;;;;;;;;17.11;46.52;103222.75;6312779;22;19906;-77
2022/03/21 10:39:30;;;;;;;;;;;;;;;17.11;46.58;103225.34;6342191;22;19938;-77
2022/03/21 10:41:57;;;;;;;;;;;;;;;17.08;46.68;103218.34;6315424;22;19914;-76
2022/03/21 10:44:22;;;;;;;;;;;;;;;17.09;46.77;103221.81;6314144;22;19906;-77
2022/03/21 10:46:52;;;;;;;;;;;;;;;17.08;46.70;103222.69;6314645;22;19918;-77
2022/03/21 10:49:25;;;;;;;;;;;;;;;17.07;47.06;103226.97;6342348;22;20318;-77
2022/03/21 10:51:54;;;;;;;;;;;;;;;17.06;46.94;103225.22;6315447;22;19976;-77
2022/03/21 10:54:34;;;;;;;;;;;;;;;17.05;46.95;103219.13;6315008;22;19941;-77
2022/03/21 10:56:59;;;;;;;;;;;;;;;17.05;47.15;103220.88;6313965;22;20193;-76
2022/03/21 10:59:25;;;;;;;;;;;;;;;17.04;46.92;103219.97;6341802;22;19918;-76
2022/03/21 11:02:08;;;;;;;;;;;;;;;17.04;47.09;103216.47;6342704;22;19920;-77
2022/03/21 11:04:33;;;;;;;;;;;;;;;17.03;47.21;103212.13;6315260;22;19906;-77
2022/03/21 11:06:58;;;;;;;;;;;;;;;17.03;47.05;103210.41;6288887;22;19917;-77
2022/03/21 11:09:24;;;;;;;;;;;;;;;17.03;47.03;103213.00;6313969;22;19992;-79
2022/03/21 11:11:49;;;;;;;;;;;;;;;17.05;47.24;103211.34;6314379;22;19937;-77
2022/03/21 11:14:14;;;;;;;;;;;;;;;17.04;47.12;103212.16;6314104;22;19910;-77
2022/03/21 11:16:40;;;;;;;;;;;;;;;17.09;47.13;103212.28;6286741;22;19910;-77
2022/03/21 11:19:07;;;;;;;;;;;;;;;17.11;47.13;103213.22;6340532;22;19914;-77
2022/03/21 11:21:33;;;;;;;;;;;;;;;17.09;47.15;103212.28;6313381;22;19918;-77
2022/03/21 11:23:59;;;;;;;;;;;;;;;17.09;47.52;103209.69;6287865;22;19915;-78
2022/03/21 11:26:24;;;;;;;;;;;;;;;17.08;47.48;103201.88;6313390;22;19910;-77
2022/03/21 11:29:06;;;;;;;;;;;;;;;17.09;47.21;103198.41;6313415;22;19913;-77
2022/03/21 11:31:48;;;;;;;;;;;;;;;17.09;47.23;103204.50;6313441;22;19907;-78
2022/03/21 11:34:22;;;;;;;;;;;;;;;17.11;46.87;103201.94;6313431;22;19989;-77
2022/03/21 11:36:51;;;;;;;;;;;;;;;17.11;47.30;103199.34;6341084;22;19906;-77
2022/03/21 11:39:17;;;;;;;;;;;;;;;17.12;47.12;103202.00;6312939;22;19985;-77
2022/03/21 11:42:01;;;;;;;;;;;;;;;17.12;47.14;103199.41;6313324;22;19956;-77
2022/03/21 11:44:26;;;;;;;;;;;;;;;17.13;47.21;103205.47;6340494;22;19956;-77
2022/03/21 11:46:51;;;;;;;;;;;;;;;17.14;47.51;103199.44;6312735;22;20277;-78
2022/03/21 11:49:19;;;;;;;;;;;;;;;17.13;47.27;103189.88;6312758;22;19917;-78
2022/03/21 11:51:53;;;;;;;;;;;;;;;17.15;47.35;103198.59;6340607;22;19929;-78
2022/03/21 11:54:37;;;;;;;;;;;;;;;17.14;47.32;103187.31;6312808;22;19938;-78
2022/03/21 11:57:04;;;;;;;;;;;;;;;17.16;47.56;103192.53;6312525;22;19907;-78
2022/03/21 11:59:32;;;;;;;;;;;;;;;17.16;47.46;103195.16;6313360;22;19906;-78
2022/03/21 12:01:58;;;;;;;;;;;;;;;17.16;47.40;103184.75;6313246;22;20327;-78
2022/03/21 12:04:23;;;;;;;;;;;;;;;17.17;47.38;103179.59;6316416;22;19997;-78
2022/03/21 12:06:49;;;;;;;;;;;;;;;17.18;47.35;103175.25;6347147;22;19906;-80
2022/03/21 12:09:14;;;;;;;;;;;;;;;17.19;47.59;103175.31;6318443;22;19980;-78
2022/03/21 12:11:46;;;;;;;;;;;;;;;17.19;47.44;103177.03;6316019;22;19918;-77
2022/03/21 12:14:21;;;;;;;;;;;;;;;17.19;47.30;103177.91;6314125;22;19911;-77
2022/03/21 12:17:06;;;;;;;;;;;;;;;17.19;47.34;103175.31;6313881;22;19911;-78
2022/03/21 12:19:44;;;;;;;;;;;;;;;17.20;47.46;103171.91;6265758;22;19946;-77
2022/03/21 12:22:33;;;;;;;;;;;;;;;17.21;47.22;103167.56;6282591;22;19989;-77
2022/03/21 12:25:00;;;;;;;;;;;;;;;17.21;47.30;103160.63;6282055;22;19959;-77
2022/03/21 12:27:38;;;;;;;;;;;;;;;17.24;47.27;103167.63;6282205;22;19913;-77
2022/03/21 12:30:27;;;;;;;;;;;;;;;17.24;47.27;103165.03;6282268;22;20010;-77
2022/03/21 12:32:58;;;;;;;;;;;;;;;17.25;47.32;103159.00;6281976;22;19949;-77
2022/03/21 12:35:32;;;;;;;;;;;;;;;17.26;47.31;103159.03;6281739;22;19914;-77
2022/03/21 12:38:09;;;;;;;;;;;;;;;17.27;47.17;103152.13;6281973;22;19906;-77
2022/03/21 12:40:35;;;;;;;;;;;;;;;17.27;47.18;103144.31;6281353;22;20280;-77
2022/03/21 12:43:02;;;;;;;;;;;;;;;17.28;47.09;103146.06;6281404;22;19953;-78
2022/03/21 12:45:31;;;;;;;;;;;;;;;17.28;47.14;103152.16;6282315;22;19907;-78
2022/03/21 12:48:00;;;;;;;;;;;;;;;17.31;46.97;103150.47;6281961;22;20319;-77
2022/03/21 12:50:25;;;;;;;;;;;;;;;17.30;47.05;103144.41;6256428;22;19993;-78
2022/03/21 12:52:52;;;;;;;;;;;;;;;17.34;47.10;103153.19;6282077;22;19911;-78
2022/03/21 12:55:17;;;;;;;;;;;;;;;17.33;47.19;103144.47;6281768;22;20330;-78